createdAt,value
2018-06-27T00:00:19.383Z,21.19
2018-06-27T00:01:19.353Z,21.16
2018-06-27T00:02:19.430Z,21.19
2018-06-27T00:03:19.476Z,21.19
2018-06-27T00:04:19.350Z,21.21
2018-06-27T00:05:19.254Z,21.21
2018-06-27T00:06:19.415Z,21.18
2018-06-27T00:07:19.287Z,21.21
2018-06-27T00:08:19.404Z,21.21
2018-06-27T00:09:19.498Z,21.19
2018-06-27T00:10:19.272Z,21.19
2018-06-27T00:11:19.453Z,21.19
2018-06-27T00:12:19.436Z,21.18
2018-06-27T00:13:19.715Z,21.19
2018-06-27T00:14:19.396Z,21.18
2018-06-27T00:15:19.438Z,21.18
2018-06-27T00:16:19.416Z,21.18
2018-06-27T00:17:19.366Z,21.16
2018-06-27T00:18:19.609Z,21.18
2018-06-27T00:19:19.596Z,21.18
2018-06-27T00:20:19.331Z,21.18
2018-06-27T00:21:19.544Z,21.16
2018-06-27T00:22:19.334Z,21.18
2018-06-27T00:23:19.480Z,21.16
2018-06-27T00:24:19.348Z,21.15
2018-06-27T00:25:19.464Z,21.15
2018-06-27T00:26:19.369Z,21.15
2018-06-27T00:27:19.356Z,21.16
2018-06-27T00:28:19.246Z,21.16
2018-06-27T00:29:19.402Z,21.16
2018-06-27T00:30:19.394Z,21.16
2018-06-27T00:31:19.402Z,21.16
2018-06-27T00:32:19.329Z,21.18
2018-06-27T00:33:19.383Z,21.15
2018-06-27T00:34:19.572Z,21.16
2018-06-27T00:35:19.435Z,21.16
2018-06-27T00:36:19.473Z,21.18
2018-06-27T00:37:19.269Z,21.16
2018-06-27T00:38:19.454Z,21.15
2018-06-27T00:39:19.312Z,21.16
2018-06-27T00:40:19.263Z,21.19
2018-06-27T00:41:19.462Z,21.16
2018-06-27T00:42:19.577Z,21.18
2018-06-27T00:43:19.554Z,21.16
2018-06-27T00:44:19.502Z,21.15
2018-06-27T00:45:19.540Z,21.16
2018-06-27T00:46:19.207Z,21.16
2018-06-27T00:47:19.353Z,21.15
2018-06-27T00:48:19.321Z,21.16
2018-06-27T00:49:19.435Z,21.18
2018-06-27T00:50:19.456Z,21.15
2018-06-27T00:51:19.225Z,21.15
2018-06-27T00:52:19.284Z,21.15
2018-06-27T00:53:19.392Z,21.18
2018-06-27T00:54:19.486Z,21.15
2018-06-27T00:55:19.174Z,21.15
2018-06-27T00:56:19.487Z,21.16
2018-06-27T00:57:19.646Z,21.14
2018-06-27T00:58:19.484Z,21.14
2018-06-27T00:59:19.455Z,21.15
2018-06-27T01:00:19.439Z,21.14
2018-06-27T01:01:19.335Z,21.14
2018-06-27T01:02:19.463Z,21.15
2018-06-27T01:03:19.461Z,21.14
2018-06-27T01:04:19.269Z,21.16
2018-06-27T01:05:19.319Z,21.14
2018-06-27T01:06:19.267Z,21.15
2018-06-27T01:07:19.419Z,21.15
2018-06-27T01:08:19.280Z,21.16
2018-06-27T01:09:19.288Z,21.15
2018-06-27T01:10:19.441Z,21.15
2018-06-27T01:11:19.428Z,21.12
2018-06-27T01:12:19.301Z,21.14
2018-06-27T01:13:19.246Z,21.12
2018-06-27T01:14:19.225Z,21.15
2018-06-27T01:15:19.425Z,21.14
2018-06-27T01:16:19.465Z,21.16
2018-06-27T01:17:19.411Z,21.15
2018-06-27T01:18:19.478Z,21.14
2018-06-27T01:19:19.276Z,21.12
2018-06-27T01:20:19.478Z,21.15
2018-06-27T01:21:19.783Z,21.15
2018-06-27T01:22:19.239Z,21.14
2018-06-27T01:23:19.322Z,21.14
2018-06-27T01:24:19.314Z,21.14
2018-06-27T01:25:19.404Z,21.14
2018-06-27T01:26:19.452Z,21.14
2018-06-27T01:27:19.515Z,21.14
2018-06-27T01:28:19.402Z,21.15
2018-06-27T01:29:19.481Z,21.12
2018-06-27T01:30:19.375Z,21.12
2018-06-27T01:31:19.251Z,21.15
2018-06-27T01:32:19.633Z,21.11
2018-06-27T01:33:19.513Z,21.12
2018-06-27T01:34:19.310Z,21.14
2018-06-27T01:35:19.297Z,21.12
2018-06-27T01:36:19.274Z,21.14
2018-06-27T01:37:19.355Z,21.15
2018-06-27T01:38:19.268Z,21.14
2018-06-27T01:39:19.419Z,21.12
2018-06-27T01:40:19.296Z,21.12
2018-06-27T01:41:19.326Z,21.09
2018-06-27T01:42:19.319Z,21.12
2018-06-27T01:43:19.372Z,21.12
2018-06-27T01:44:19.536Z,21.11
2018-06-27T01:45:19.363Z,21.12
2018-06-27T01:46:19.546Z,21.12
2018-06-27T01:47:19.426Z,21.12
2018-06-27T01:48:19.427Z,21.11
2018-06-27T01:49:19.259Z,21.12
2018-06-27T01:50:19.496Z,21.09
2018-06-27T01:51:19.361Z,21.11
2018-06-27T01:52:19.318Z,21.12
2018-06-27T01:53:19.286Z,21.12
2018-06-27T01:54:19.253Z,21.12
2018-06-27T01:55:19.261Z,21.12
2018-06-27T01:56:19.521Z,21.11
2018-06-27T01:57:19.393Z,21.15
2018-06-27T01:58:19.248Z,21.12
2018-06-27T01:59:19.454Z,21.12
2018-06-27T02:00:19.436Z,21.12
2018-06-27T02:01:19.264Z,21.12
2018-06-27T02:02:19.468Z,21.12
2018-06-27T02:03:19.237Z,21.14
2018-06-27T02:04:19.427Z,21.11
2018-06-27T02:05:19.369Z,21.09
2018-06-27T02:06:19.351Z,21.12
2018-06-27T02:07:19.275Z,21.12
2018-06-27T02:08:19.440Z,21.11
2018-06-27T02:09:19.380Z,21.12
2018-06-27T02:10:19.513Z,21.12
2018-06-27T02:11:19.259Z,21.11
2018-06-27T02:12:19.358Z,21.12
2018-06-27T02:13:19.399Z,21.11
2018-06-27T02:14:19.435Z,21.11
2018-06-27T02:15:19.412Z,21.09
2018-06-27T02:16:19.176Z,21.11
2018-06-27T02:17:19.267Z,21.11
2018-06-27T02:18:19.467Z,21.12
2018-06-27T02:19:19.269Z,21.12
2018-06-27T02:20:19.372Z,21.11
2018-06-27T02:21:19.283Z,21.12
2018-06-27T02:22:19.427Z,21.11
2018-06-27T02:23:19.522Z,21.11
2018-06-27T02:24:19.370Z,21.11
2018-06-27T02:25:19.339Z,21.09
2018-06-27T02:26:19.348Z,21.11
2018-06-27T02:27:19.198Z,21.11
2018-06-27T02:28:19.288Z,21.12
2018-06-27T02:29:19.328Z,21.11
2018-06-27T02:30:19.435Z,21.09
2018-06-27T02:31:19.425Z,21.11
2018-06-27T02:32:19.416Z,21.11
2018-06-27T02:33:19.303Z,21.12
2018-06-27T02:34:19.446Z,21.11
2018-06-27T02:35:19.297Z,21.11
2018-06-27T02:36:19.241Z,21.12
2018-06-27T02:37:19.346Z,21.14
2018-06-27T02:38:19.395Z,21.11
2018-06-27T02:39:19.471Z,21.09
2018-06-27T02:40:19.383Z,21.09
2018-06-27T02:41:19.416Z,21.11
2018-06-27T02:42:19.389Z,21.11
2018-06-27T02:43:19.403Z,21.11
2018-06-27T02:44:19.457Z,21.09
2018-06-27T02:45:19.151Z,21.09
2018-06-27T02:46:19.500Z,21.11
2018-06-27T02:47:19.255Z,21.11
2018-06-27T02:48:19.161Z,21.09
2018-06-27T02:49:19.240Z,21.09
2018-06-27T02:50:19.222Z,21.08
2018-06-27T02:51:19.360Z,21.12
2018-06-27T02:52:19.444Z,21.09
2018-06-27T02:53:19.286Z,21.09
2018-06-27T02:54:19.428Z,21.08
2018-06-27T02:55:19.408Z,21.09
2018-06-27T02:56:19.232Z,21.09
2018-06-27T02:57:19.398Z,21.08
2018-06-27T02:58:19.473Z,21.09
2018-06-27T02:59:19.379Z,21.09
2018-06-27T03:00:19.241Z,21.06
2018-06-27T03:01:19.545Z,21.08
2018-06-27T03:02:19.680Z,21.08
2018-06-27T03:03:19.258Z,21.08
2018-06-27T03:04:19.518Z,21.11
2018-06-27T03:05:19.226Z,21.06
2018-06-27T03:06:19.303Z,21.06
2018-06-27T03:07:19.668Z,21.06
2018-06-27T03:08:46.844Z,21.08
2018-06-27T03:09:19.350Z,21.08
2018-06-27T03:10:19.443Z,21.05
2018-06-27T03:11:19.259Z,21.06
2018-06-27T03:12:19.297Z,21.08
2018-06-27T03:13:19.372Z,21.09
2018-06-27T03:14:19.464Z,21.08
2018-06-27T03:15:19.295Z,21.06
2018-06-27T03:16:19.340Z,21.09
2018-06-27T03:17:19.574Z,21.08
2018-06-27T03:18:19.338Z,21.05
2018-06-27T03:19:19.184Z,21.05
2018-06-27T03:20:19.554Z,21.06
2018-06-27T03:21:19.398Z,21.06
2018-06-27T03:22:19.284Z,21.05
2018-06-27T03:23:19.420Z,21.06
2018-06-27T03:24:19.310Z,21.06
2018-06-27T03:25:19.386Z,21.03
2018-06-27T03:26:19.329Z,21.03
2018-06-27T03:27:19.498Z,21.05
2018-06-27T03:28:19.345Z,21.05
2018-06-27T03:29:19.195Z,21.05
2018-06-27T03:30:19.340Z,21.06
2018-06-27T03:31:19.413Z,21.06
2018-06-27T03:32:19.364Z,21.03
2018-06-27T03:33:19.251Z,21.06
2018-06-27T03:34:19.393Z,21.03
2018-06-27T03:35:19.402Z,21.05
2018-06-27T03:36:19.217Z,21.03
2018-06-27T03:37:19.264Z,21.01
2018-06-27T03:38:19.360Z,21.02
2018-06-27T03:39:19.406Z,21.03
2018-06-27T03:40:19.207Z,21.05
2018-06-27T03:41:19.368Z,21.03
2018-06-27T03:42:19.496Z,21.03
2018-06-27T03:43:19.249Z,21.03
2018-06-27T03:44:19.403Z,21.03
2018-06-27T03:45:19.347Z,21.03
2018-06-27T03:46:19.403Z,21.02
2018-06-27T03:47:19.506Z,21.02
2018-06-27T03:48:19.227Z,21.01
2018-06-27T03:49:19.139Z,21.02
2018-06-27T03:50:19.285Z,21.03
2018-06-27T03:51:19.353Z,21.03
2018-06-27T03:52:19.521Z,21.02
2018-06-27T03:53:19.235Z,21.03
2018-06-27T03:54:19.582Z,21.03
2018-06-27T03:55:19.349Z,21.02
2018-06-27T03:56:19.336Z,21.05
2018-06-27T03:57:19.378Z,21.03
2018-06-27T03:58:19.226Z,21.03
2018-06-27T03:59:19.365Z,21.05
2018-06-27T04:00:19.361Z,21.03
2018-06-27T04:01:19.390Z,21.02
2018-06-27T04:02:19.231Z,21.02
2018-06-27T04:03:19.327Z,21.02
2018-06-27T04:04:19.305Z,21.02
2018-06-27T04:05:19.322Z,21.03
2018-06-27T04:06:19.621Z,21.01
2018-06-27T04:07:19.264Z,21.02
2018-06-27T04:08:19.242Z,21.02
2018-06-27T04:09:19.491Z,21.02
2018-06-27T04:10:19.246Z,21.02
2018-06-27T04:11:19.364Z,21.03
2018-06-27T04:12:19.674Z,21.01
2018-06-27T04:13:20.589Z,21.03
2018-06-27T04:14:19.437Z,21.01
2018-06-27T04:15:19.490Z,20.99
2018-06-27T04:16:19.170Z,21.01
2018-06-27T04:17:19.240Z,21.02
2018-06-27T04:18:19.423Z,21.02
2018-06-27T04:19:19.461Z,21.01
2018-06-27T04:20:19.251Z,21.02
2018-06-27T04:21:19.243Z,21.03
2018-06-27T04:22:19.396Z,21.01
2018-06-27T04:23:19.325Z,21.02
2018-06-27T04:24:19.231Z,21.02
2018-06-27T04:25:19.183Z,21.03
2018-06-27T04:26:19.257Z,21.01
2018-06-27T04:27:19.402Z,21.02
2018-06-27T04:28:19.264Z,21.02
2018-06-27T04:29:19.262Z,21.01
2018-06-27T04:30:19.256Z,21.02
2018-06-27T04:31:19.300Z,20.99
2018-06-27T04:32:19.423Z,21.01
2018-06-27T04:33:19.188Z,21.03
2018-06-27T04:34:19.195Z,21.02
2018-06-27T04:35:19.365Z,21.01
2018-06-27T04:36:19.296Z,21.01
2018-06-27T04:37:19.222Z,21.02
2018-06-27T04:38:19.257Z,20.99
2018-06-27T04:39:19.218Z,20.99
2018-06-27T04:40:19.288Z,21.01
2018-06-27T04:41:19.334Z,21.01
2018-06-27T04:42:19.428Z,21.03
2018-06-27T04:43:19.255Z,21.02
2018-06-27T04:44:19.343Z,21.01
2018-06-27T04:45:19.333Z,21.01
2018-06-27T04:46:19.425Z,21.01
2018-06-27T04:47:19.178Z,21.02
2018-06-27T04:48:19.331Z,21.01
2018-06-27T04:49:19.305Z,21.02
2018-06-27T04:50:19.358Z,21.01
2018-06-27T04:51:19.376Z,21.02
2018-06-27T04:52:19.241Z,20.99
2018-06-27T04:53:19.352Z,21.02
2018-06-27T04:54:19.244Z,21.01
2018-06-27T04:55:19.209Z,20.99
2018-06-27T04:56:19.524Z,20.99
2018-06-27T04:57:19.298Z,21.01
2018-06-27T04:58:19.349Z,21.01
2018-06-27T04:59:19.400Z,21.03
2018-06-27T05:00:19.414Z,21.01
2018-06-27T05:01:19.402Z,20.99
2018-06-27T05:02:19.142Z,20.99
2018-06-27T05:03:19.274Z,21.01
2018-06-27T05:04:19.479Z,21.02
2018-06-27T05:05:19.520Z,21.01
2018-06-27T05:06:19.201Z,21.02
2018-06-27T05:07:19.390Z,21.01
2018-06-27T05:08:19.375Z,20.99
2018-06-27T05:09:19.252Z,20.99
2018-06-27T05:10:19.257Z,21.01
2018-06-27T05:11:19.371Z,20.99
2018-06-27T05:12:19.293Z,21.01
2018-06-27T05:13:19.285Z,21.01
2018-06-27T05:14:19.409Z,21.01
2018-06-27T05:15:19.324Z,21.01
2018-06-27T05:16:19.415Z,21.02
2018-06-27T05:17:19.196Z,21.02
2018-06-27T05:18:19.499Z,21.02
2018-06-27T05:19:19.292Z,21.01
2018-06-27T05:20:19.337Z,21.02
2018-06-27T05:21:19.232Z,21.03
2018-06-27T05:22:19.378Z,20.99
2018-06-27T05:23:19.276Z,20.97
2018-06-27T05:24:19.367Z,20.98
2018-06-27T05:25:19.268Z,21.02
2018-06-27T05:26:19.323Z,21.02
2018-06-27T05:27:20.257Z,21.01
2018-06-27T05:28:19.226Z,21.01
2018-06-27T05:29:19.225Z,21.01
2018-06-27T05:30:19.199Z,21.01
2018-06-27T05:31:19.269Z,20.98
2018-06-27T05:32:19.238Z,21.01
2018-06-27T05:33:19.346Z,21.01
2018-06-27T05:34:19.336Z,21.01
2018-06-27T05:35:19.357Z,21.02
2018-06-27T05:36:19.243Z,21.02
2018-06-27T05:37:19.158Z,21.02
2018-06-27T05:38:19.343Z,21.01
2018-06-27T05:39:19.257Z,21.02
2018-06-27T05:40:19.306Z,21.02
2018-06-27T05:41:19.115Z,21.02
2018-06-27T05:42:19.367Z,21.02
2018-06-27T05:43:19.456Z,21.01
2018-06-27T05:44:19.852Z,21.01
2018-06-27T05:45:19.346Z,21.02
2018-06-27T05:46:19.260Z,21.01
2018-06-27T05:47:19.250Z,21.02
2018-06-27T05:48:19.218Z,21.02
2018-06-27T05:49:19.543Z,21.05
2018-06-27T05:50:19.231Z,21.02
2018-06-27T05:51:19.360Z,21.02
2018-06-27T05:52:19.246Z,21.03
2018-06-27T05:53:19.157Z,21.06
2018-06-27T05:54:19.301Z,21.05
2018-06-27T05:55:19.235Z,21.05
2018-06-27T05:56:19.198Z,21.03
2018-06-27T05:57:19.273Z,21.06
2018-06-27T05:58:20.153Z,21.06
2018-06-27T05:59:19.428Z,21.05
2018-06-27T06:00:19.232Z,21.03
2018-06-27T06:01:19.393Z,21.05
2018-06-27T06:02:19.287Z,21.05
2018-06-27T06:03:19.350Z,21.05
2018-06-27T06:04:19.610Z,21.05
2018-06-27T06:05:19.266Z,21.05
2018-06-27T06:06:19.152Z,21.06
2018-06-27T06:07:19.300Z,21.02
2018-06-27T06:08:19.391Z,21.02
2018-06-27T06:09:19.466Z,21.03
2018-06-27T06:10:19.477Z,21.05
2018-06-27T06:11:20.491Z,21.03
2018-06-27T06:12:19.209Z,21.05
2018-06-27T06:13:19.149Z,21.05
2018-06-27T06:14:19.397Z,21.05
2018-06-27T06:15:19.268Z,21.08
2018-06-27T06:16:19.293Z,21.05
2018-06-27T06:17:19.442Z,21.05
2018-06-27T06:18:19.233Z,21.05
2018-06-27T06:19:19.224Z,21.06
2018-06-27T06:20:19.332Z,21.06
2018-06-27T06:21:19.130Z,21.06
2018-06-27T06:22:19.196Z,21.06
2018-06-27T06:23:19.206Z,21.06
2018-06-27T06:24:19.336Z,21.06
2018-06-27T06:25:19.906Z,21.05
2018-06-27T06:26:19.224Z,21.05
2018-06-27T06:27:19.341Z,21.09
2018-06-27T06:28:19.195Z,21.06
2018-06-27T06:29:19.223Z,21.06
2018-06-27T06:30:19.318Z,21.05
2018-06-27T06:31:19.167Z,21.06
2018-06-27T06:32:20.319Z,21.03
2018-06-27T06:33:19.501Z,21.05
2018-06-27T06:34:19.129Z,21.05
2018-06-27T06:35:19.269Z,21.05
2018-06-27T06:36:19.258Z,21.06
2018-06-27T06:37:19.210Z,21.06
2018-06-27T06:38:19.316Z,21.05
2018-06-27T06:39:19.313Z,21.05
2018-06-27T06:40:19.144Z,21.05
2018-06-27T06:41:19.339Z,21.03
2018-06-27T06:42:19.261Z,21.06
2018-06-27T06:43:19.245Z,21.05
2018-06-27T06:44:19.316Z,21.05
2018-06-27T06:45:19.377Z,21.06
2018-06-27T06:46:19.350Z,21.06
2018-06-27T06:47:19.160Z,21.06
2018-06-27T06:48:19.364Z,21.05
2018-06-27T06:49:19.236Z,21.03
2018-06-27T06:50:19.237Z,21.05
2018-06-27T06:51:19.249Z,21.08
2018-06-27T06:52:19.352Z,21.03
2018-06-27T06:53:19.477Z,21.06
2018-06-27T06:54:19.215Z,21.06
2018-06-27T06:55:19.211Z,21.06
2018-06-27T06:56:19.276Z,21.05
2018-06-27T06:57:19.365Z,21.03
2018-06-27T06:58:19.158Z,21.03
2018-06-27T06:59:19.280Z,21.03
2018-06-27T07:00:19.342Z,21.03
2018-06-27T07:01:19.522Z,21.02
2018-06-27T07:02:19.570Z,21.01
2018-06-27T07:03:19.329Z,21.03
2018-06-27T07:04:19.593Z,21.03
2018-06-27T07:05:19.339Z,21.03
2018-06-27T07:06:19.170Z,21.05
2018-06-27T07:07:19.149Z,21.03
2018-06-27T07:08:19.244Z,21.02
2018-06-27T07:09:19.180Z,21.03
2018-06-27T07:10:19.308Z,21.05
2018-06-27T07:11:20.632Z,21.05
2018-06-27T07:12:19.400Z,21.03
2018-06-27T07:13:19.325Z,21.05
2018-06-27T07:14:19.351Z,21.02
2018-06-27T07:15:19.420Z,20.99
2018-06-27T07:16:19.711Z,21.01
2018-06-27T07:17:19.332Z,21.01
2018-06-27T07:18:19.282Z,21.01
2018-06-27T07:19:19.280Z,21.02
2018-06-27T07:20:19.143Z,21.03
2018-06-27T07:21:19.275Z,21.02
2018-06-27T07:22:19.207Z,21.01
2018-06-27T07:23:19.242Z,21.06
2018-06-27T07:24:19.392Z,21.05
2018-06-27T07:25:19.409Z,21.01
2018-06-27T07:26:19.579Z,21.02
2018-06-27T07:27:19.168Z,21.02
2018-06-27T07:28:19.355Z,21.01
2018-06-27T07:29:19.353Z,21.02
2018-06-27T07:30:19.204Z,21.02
2018-06-27T07:31:19.496Z,20.99
2018-06-27T07:32:19.338Z,21.01
2018-06-27T07:33:19.420Z,21.02
2018-06-27T07:34:19.332Z,20.98
2018-06-27T07:35:19.279Z,21.01
2018-06-27T07:36:29.319Z,21.03
2018-06-27T07:37:19.213Z,21.02
2018-06-27T07:38:19.130Z,20.99
2018-06-27T07:39:19.284Z,21.01
2018-06-27T07:40:19.346Z,21.02
2018-06-27T07:41:19.284Z,21.02
2018-06-27T07:42:19.362Z,21.03
2018-06-27T07:43:19.434Z,21.02
2018-06-27T07:44:19.523Z,21.02
2018-06-27T07:45:19.185Z,21.01
2018-06-27T07:46:19.192Z,21.02
2018-06-27T07:47:19.869Z,21.02
2018-06-27T07:48:20.004Z,21.03
2018-06-27T07:49:20.048Z,21.05
2018-06-27T07:50:19.985Z,21.06
2018-06-27T07:51:20.028Z,21.03
2018-06-27T07:52:19.886Z,21.03
2018-06-27T07:53:20.080Z,21.03
2018-06-27T07:54:19.791Z,21.03
2018-06-27T07:55:19.869Z,21.05
2018-06-27T07:56:19.962Z,21.06
2018-06-27T07:57:19.865Z,21.08
2018-06-27T07:58:19.838Z,21.05
2018-06-27T07:59:19.844Z,21.05
2018-06-27T08:00:20.010Z,21.08
2018-06-27T08:01:19.872Z,21.05
2018-06-27T08:02:19.955Z,21.06
2018-06-27T08:03:19.752Z,21.06
2018-06-27T08:04:20.013Z,21.08
2018-06-27T08:05:19.868Z,21.06
2018-06-27T08:06:19.992Z,21.05
2018-06-27T08:07:19.906Z,21.03
2018-06-27T08:08:20.083Z,21.02
2018-06-27T08:09:19.822Z,21.05
2018-06-27T08:10:20.145Z,21.05
2018-06-27T08:11:20.166Z,21.03
2018-06-27T08:12:20.254Z,21.02
2018-06-27T08:13:20.024Z,21.03
2018-06-27T08:14:21.055Z,21.03
2018-06-27T08:15:20.156Z,21.01
2018-06-27T08:16:21.157Z,21.03
2018-06-27T08:17:19.905Z,21.06
2018-06-27T08:18:19.838Z,21.08
2018-06-27T08:19:19.872Z,21.12
2018-06-27T08:20:19.283Z,21.11
2018-06-27T08:21:19.875Z,21.12
2018-06-27T08:22:19.916Z,21.12
2018-06-27T08:23:20.993Z,21.14
2018-06-27T08:24:19.928Z,21.15
2018-06-27T08:25:20.032Z,21.15
2018-06-27T08:26:21.262Z,21.16
2018-06-27T08:27:20.095Z,21.15
2018-06-27T08:28:20.449Z,21.12
2018-06-27T08:29:20.127Z,21.11
2018-06-27T08:30:19.719Z,21.15
2018-06-27T08:31:20.686Z,21.15
2018-06-27T08:32:20.012Z,21.16
2018-06-27T08:33:19.954Z,21.18
2018-06-27T08:34:20.266Z,21.19
2018-06-27T08:35:20.823Z,21.16
2018-06-27T08:36:19.751Z,21.21
2018-06-27T08:37:19.884Z,21.18
2018-06-27T08:38:20.837Z,21.18
2018-06-27T08:39:46.839Z,21.19
2018-06-27T08:40:19.707Z,21.19
2018-06-27T08:41:19.868Z,21.19
2018-06-27T08:42:19.776Z,21.19
2018-06-27T08:43:20.072Z,21.19
2018-06-27T08:44:20.537Z,21.19
2018-06-27T08:45:19.859Z,21.19
2018-06-27T08:46:19.385Z,21.18
2018-06-27T08:47:19.115Z,21.16
2018-06-27T08:48:19.919Z,21.16
2018-06-27T08:49:19.290Z,21.19
2018-06-27T08:50:20.353Z,21.19
2018-06-27T08:51:19.103Z,21.21
2018-06-27T08:52:19.920Z,21.19
2018-06-27T08:53:20.104Z,21.22
2018-06-27T08:54:19.813Z,21.19
2018-06-27T08:55:20.127Z,21.18
2018-06-27T08:56:19.177Z,21.18
2018-06-27T08:57:19.192Z,21.19
2018-06-27T08:58:19.203Z,21.19
2018-06-27T08:59:19.501Z,21.19
2018-06-27T09:00:19.173Z,21.19
2018-06-27T09:01:20.263Z,21.21
2018-06-27T09:02:20.306Z,21.19
2018-06-27T09:03:20.351Z,21.18
2018-06-27T09:04:20.250Z,21.19
2018-06-27T09:05:19.233Z,21.15
2018-06-27T09:06:19.165Z,21.15
2018-06-27T09:07:19.607Z,21.18
2018-06-27T09:08:19.158Z,21.18
2018-06-27T09:09:19.156Z,21.22
2018-06-27T09:10:20.250Z,21.19
2018-06-27T09:11:19.105Z,21.21
2018-06-27T09:12:19.676Z,21.21
2018-06-27T09:13:19.675Z,21.21
2018-06-27T09:14:20.124Z,21.18
2018-06-27T09:15:19.284Z,21.19
2018-06-27T09:16:19.617Z,21.15
2018-06-27T09:17:20.214Z,21.18
2018-06-27T09:18:20.703Z,21.16
2018-06-27T09:19:20.113Z,21.15
2018-06-27T09:20:46.913Z,21.16
2018-06-27T09:21:20.328Z,21.16
2018-06-27T09:22:20.195Z,21.16
2018-06-27T09:23:19.124Z,21.16
2018-06-27T09:24:20.325Z,21.18
2018-06-27T09:25:19.253Z,21.18
2018-06-27T09:26:19.758Z,21.16
2018-06-27T09:27:20.391Z,21.18
2018-06-27T09:28:19.727Z,21.15
2018-06-27T09:29:19.395Z,21.15
2018-06-27T09:30:19.152Z,21.16
2018-06-27T09:31:19.868Z,21.19
2018-06-27T09:32:19.523Z,21.16
2018-06-27T09:33:19.114Z,21.18
2018-06-27T09:34:19.799Z,21.18
2018-06-27T09:35:19.108Z,21.15
2018-06-27T09:36:19.238Z,21.16
2018-06-27T09:37:22.301Z,21.15
2018-06-27T09:38:20.014Z,21.16
2018-06-27T09:39:19.191Z,21.14
2018-06-27T09:40:20.168Z,21.16
2018-06-27T09:41:19.122Z,21.16
2018-06-27T09:42:19.818Z,21.15
2018-06-27T09:43:19.574Z,21.18
2018-06-27T09:44:19.265Z,21.19
2018-06-27T09:45:19.790Z,21.21
2018-06-27T09:46:19.693Z,21.18
2018-06-27T09:47:19.820Z,21.15
2018-06-27T09:48:19.213Z,21.18
2018-06-27T09:49:19.233Z,21.16
2018-06-27T09:50:21.069Z,21.21
2018-06-27T09:51:19.258Z,21.18
2018-06-27T09:52:19.846Z,21.16
2018-06-27T09:53:19.834Z,21.16
2018-06-27T09:54:19.993Z,21.18
2018-06-27T09:55:20.158Z,21.19
2018-06-27T09:56:19.957Z,21.18
2018-06-27T09:57:19.955Z,21.19
2018-06-27T09:58:19.940Z,21.19
2018-06-27T09:59:19.824Z,21.21
2018-06-27T10:00:19.892Z,21.23
2018-06-27T10:01:19.979Z,21.21
2018-06-27T10:02:19.848Z,21.25
2018-06-27T10:03:19.972Z,21.25
2018-06-27T10:04:19.828Z,21.26
2018-06-27T10:05:19.841Z,21.25
2018-06-27T10:06:19.939Z,21.25
2018-06-27T10:07:19.855Z,21.23
2018-06-27T10:08:19.749Z,21.23
2018-06-27T10:09:19.937Z,21.25
2018-06-27T10:10:19.795Z,21.23
2018-06-27T10:11:19.762Z,21.26
2018-06-27T10:12:19.780Z,21.26
2018-06-27T10:13:19.908Z,21.23
2018-06-27T10:14:19.931Z,21.27
2018-06-27T10:15:19.965Z,21.3
2018-06-27T10:16:19.940Z,21.29
2018-06-27T10:17:21.524Z,21.3
2018-06-27T10:18:19.265Z,21.29
2018-06-27T10:19:19.934Z,21.32
2018-06-27T10:20:19.868Z,21.3
2018-06-27T10:21:19.750Z,21.27
2018-06-27T10:22:20.597Z,21.3
2018-06-27T10:23:19.787Z,21.32
2018-06-27T10:24:20.072Z,21.29
2018-06-27T10:25:19.952Z,21.33
2018-06-27T10:26:19.816Z,21.34
2018-06-27T10:27:20.180Z,21.34
2018-06-27T10:28:20.092Z,21.34
2018-06-27T10:29:21.126Z,21.34
2018-06-27T10:30:20.006Z,21.32
2018-06-27T10:31:19.996Z,21.32
2018-06-27T10:32:19.802Z,21.36
2018-06-27T10:33:20.693Z,21.36
2018-06-27T10:34:19.905Z,21.34
2018-06-27T10:35:20.665Z,21.36
2018-06-27T10:36:19.809Z,21.36
2018-06-27T10:37:19.781Z,21.32
2018-06-27T10:38:19.880Z,21.33
2018-06-27T10:39:19.976Z,21.3
2018-06-27T10:40:20.877Z,21.3
2018-06-27T10:41:20.057Z,21.33
2018-06-27T10:42:19.894Z,21.34
2018-06-27T10:43:19.971Z,21.32
2018-06-27T10:44:19.787Z,21.32
2018-06-27T10:45:19.806Z,21.32
2018-06-27T10:46:19.291Z,21.29
2018-06-27T10:47:19.196Z,21.32
2018-06-27T10:48:20.216Z,21.32
2018-06-27T10:49:20.145Z,21.34
2018-06-27T10:50:19.121Z,21.34
2018-06-27T10:51:19.709Z,21.32
2018-06-27T10:52:19.809Z,21.33
2018-06-27T10:53:19.160Z,21.33
2018-06-27T10:54:20.067Z,21.33
2018-06-27T10:55:19.217Z,21.34
2018-06-27T10:56:19.121Z,21.34
2018-06-27T10:57:19.610Z,21.34
2018-06-27T10:58:20.156Z,21.34
2018-06-27T10:59:19.263Z,21.36
2018-06-27T11:00:19.811Z,21.39
2018-06-27T11:01:20.078Z,21.36
2018-06-27T11:02:19.033Z,21.34
2018-06-27T11:03:19.191Z,21.39
2018-06-27T11:04:19.964Z,21.39
2018-06-27T11:05:20.135Z,21.36
2018-06-27T11:06:20.156Z,21.37
2018-06-27T11:07:20.202Z,21.37
2018-06-27T11:08:19.135Z,21.37
2018-06-27T11:09:19.160Z,21.39
2018-06-27T11:10:20.266Z,21.4
2018-06-27T11:11:19.116Z,21.39
2018-06-27T11:12:20.331Z,21.39
2018-06-27T11:13:20.121Z,21.39
2018-06-27T11:14:20.171Z,21.36
2018-06-27T11:15:19.194Z,21.36
2018-06-27T11:16:19.159Z,21.39
2018-06-27T11:17:19.937Z,21.39
2018-06-27T11:18:19.233Z,21.34
2018-06-27T11:19:19.071Z,21.36
2018-06-27T11:20:19.464Z,21.36
2018-06-27T11:21:19.133Z,21.36
2018-06-27T11:22:19.090Z,21.33
2018-06-27T11:23:19.845Z,21.36
2018-06-27T11:24:20.210Z,21.36
2018-06-27T11:25:19.046Z,21.34
2018-06-27T11:26:19.221Z,21.33
2018-06-27T11:27:19.208Z,21.37
2018-06-27T11:28:19.123Z,21.36
2018-06-27T11:29:19.135Z,21.34
2018-06-27T11:30:19.205Z,21.36
2018-06-27T11:31:19.990Z,21.36
2018-06-27T11:32:20.257Z,21.4
2018-06-27T11:33:19.101Z,21.39
2018-06-27T11:34:20.176Z,21.36
2018-06-27T11:35:19.661Z,21.36
2018-06-27T11:36:19.170Z,21.37
2018-06-27T11:37:20.265Z,21.34
2018-06-27T11:38:19.363Z,21.34
2018-06-27T11:39:19.754Z,21.34
2018-06-27T11:40:20.166Z,21.34
2018-06-27T11:41:20.188Z,21.36
2018-06-27T11:42:19.116Z,21.34
2018-06-27T11:43:19.809Z,21.36
2018-06-27T11:44:20.326Z,21.36
2018-06-27T11:45:19.205Z,21.32
2018-06-27T11:46:19.357Z,21.36
2018-06-27T11:47:19.163Z,21.33
2018-06-27T11:48:19.248Z,21.33
2018-06-27T11:49:19.149Z,21.32
2018-06-27T11:50:19.171Z,21.3
2018-06-27T11:51:19.116Z,21.3
2018-06-27T11:52:19.261Z,21.32
2018-06-27T11:53:19.803Z,21.3
2018-06-27T11:54:19.376Z,21.33
2018-06-27T11:55:19.125Z,21.33
2018-06-27T11:56:19.314Z,21.32
2018-06-27T11:57:19.214Z,21.33
2018-06-27T11:58:19.280Z,21.32
2018-06-27T11:59:19.170Z,21.32
2018-06-27T12:00:19.134Z,21.33
2018-06-27T12:01:19.082Z,21.33
2018-06-27T12:02:19.222Z,21.33
2018-06-27T12:03:19.397Z,21.34
2018-06-27T12:04:19.266Z,21.32
2018-06-27T12:05:19.321Z,21.32
2018-06-27T12:06:19.234Z,21.33
2018-06-27T12:07:19.070Z,21.3
2018-06-27T12:08:19.102Z,21.33
2018-06-27T12:09:19.783Z,21.27
2018-06-27T12:10:19.250Z,21.3
2018-06-27T12:11:19.166Z,21.3
2018-06-27T12:12:19.234Z,21.3
2018-06-27T12:13:19.326Z,21.3
2018-06-27T12:14:19.455Z,21.3
2018-06-27T12:15:19.216Z,21.29
2018-06-27T12:16:19.206Z,21.27
2018-06-27T12:17:19.285Z,21.27
2018-06-27T12:18:19.198Z,21.29
2018-06-27T12:19:19.916Z,21.3
2018-06-27T12:20:19.292Z,21.32
2018-06-27T12:21:19.155Z,21.27
2018-06-27T12:22:19.279Z,21.3
2018-06-27T12:23:19.138Z,21.27
2018-06-27T12:24:19.312Z,21.27
2018-06-27T12:25:19.051Z,21.29
2018-06-27T12:26:19.329Z,21.26
2018-06-27T12:27:19.177Z,21.26
2018-06-27T12:28:19.177Z,21.27
2018-06-27T12:29:19.245Z,21.26
2018-06-27T12:30:19.074Z,21.26
2018-06-27T12:31:19.215Z,21.26
2018-06-27T12:32:19.891Z,21.29
2018-06-27T12:33:19.354Z,21.29
2018-06-27T12:34:19.175Z,21.26
2018-06-27T12:35:20.148Z,21.27
2018-06-27T12:36:19.216Z,21.29
2018-06-27T12:37:19.165Z,21.29
2018-06-27T12:38:20.006Z,21.3
2018-06-27T12:39:19.273Z,21.27
2018-06-27T12:40:19.185Z,21.27
2018-06-27T12:41:19.211Z,21.29
2018-06-27T12:42:19.113Z,21.29
2018-06-27T12:43:19.061Z,21.26
2018-06-27T12:44:19.972Z,21.27
2018-06-27T12:45:20.164Z,21.29
2018-06-27T12:46:19.560Z,21.27
2018-06-27T12:47:19.161Z,21.29
2018-06-27T12:48:19.212Z,21.26
2018-06-27T12:49:19.255Z,21.27
2018-06-27T12:50:20.666Z,21.27
2018-06-27T12:51:19.203Z,21.23
2018-06-27T12:52:19.074Z,21.25
2018-06-27T12:53:19.483Z,21.25